sensor_id;sensor_type;location;lat;lon;timestamp;pressure;altitude;pressure_sealevel;temperature;humidity
77583;BME280;66726;52.388;9.986;2023-05-17T00:02:08;101430.41;;;9.67;68.60
77583;BME280;66726;52.388;9.986;2023-05-17T00:04:41;101426.50;;;9.72;68.82
77583;BME280;66726;52.388;9.986;2023-05-17T00:07:16;101433.66;;;9.61;69.05
77583;BME280;66726;52.388;9.986;2023-05-17T00:09:49;101426.72;;;9.49;70.31
77583;BME280;66726;52.388;9.986;2023-05-17T00:12:22;101426.59;;;9.51;69.68
77583;BME280;66726;52.388;9.986;2023-05-17T00:14:56;101422.38;;;9.58;69.53
77583;BME280;66726;52.388;9.986;2023-05-17T00:17:29;101430.69;;;9.64;69.14
77583;BME280;66726;52.388;9.986;2023-05-17T00:20:03;101423.66;;;9.63;69.35
77583;BME280;66726;52.388;9.986;2023-05-17T00:22:36;101431.38;;;9.57;70.15
77583;BME280;66726;52.388;9.986;2023-05-17T00:25:12;101425.19;;;9.56;70.43
77583;BME280;66726;52.388;9.986;2023-05-17T00:27:45;101426.03;;;9.57;70.84
77583;BME280;66726;52.388;9.986;2023-05-17T00:30:18;101429.25;;;9.51;70.58
77583;BME280;66726;52.388;9.986;2023-05-17T00:32:52;101428.41;;;9.50;71.30
77583;BME280;66726;52.388;9.986;2023-05-17T00:35:26;101429.38;;;9.40;71.41
77583;BME280;66726;52.388;9.986;2023-05-17T00:38:00;101427.97;;;9.45;70.71
77583;BME280;66726;52.388;9.986;2023-05-17T00:40:34;101440.34;;;9.46;70.59
77583;BME280;66726;52.388;9.986;2023-05-17T00:43:07;101427.44;;;9.51;70.25
77583;BME280;66726;52.388;9.986;2023-05-17T00:45:41;101427.72;;;9.48;70.56
77583;BME280;66726;52.388;9.986;2023-05-17T00:48:15;101450.75;;;9.49;71.04
77583;BME280;66726;52.388;9.986;2023-05-17T00:50:49;101438.81;;;9.44;71.37
77583;BME280;66726;52.388;9.986;2023-05-17T00:53:23;101435.84;;;9.37;71.99
77583;BME280;66726;52.388;9.986;2023-05-17T00:55:57;101444.53;;;9.39;71.33
77583;BME280;66726;52.388;9.986;2023-05-17T00:58:31;101442.53;;;9.32;71.74
77583;BME280;66726;52.388;9.986;2023-05-17T01:01:06;101440.84;;;9.21;72.49
77583;BME280;66726;52.388;9.986;2023-05-17T01:03:40;101444.75;;;9.17;72.97
77583;BME280;66726;52.388;9.986;2023-05-17T01:06:14;101436.16;;;9.13;73.17
77583;BME280;66726;52.388;9.986;2023-05-17T01:08:47;101443.91;;;9.16;72.42
77583;BME280;66726;52.388;9.986;2023-05-17T01:11:34;101446.63;;;9.26;71.99
77583;BME280;66726;52.388;9.986;2023-05-17T01:14:26;101446.22;;;9.31;72.00
77583;BME280;66726;52.388;9.986;2023-05-17T01:17:11;101445.59;;;9.18;72.80
77583;BME280;66726;52.388;9.986;2023-05-17T01:20:04;101438.59;;;9.26;71.60
77583;BME280;66726;52.388;9.986;2023-05-17T01:22:50;101435.03;;;9.16;72.84
77583;BME280;66726;52.388;9.986;2023-05-17T01:25:51;101438.28;;;9.20;72.16
77583;BME280;66726;52.388;9.986;2023-05-17T01:28:28;101447.50;;;9.06;73.81
77583;BME280;66726;52.388;9.986;2023-05-17T01:31:04;101444.81;;;8.96;73.92
77583;BME280;66726;52.388;9.986;2023-05-17T01:33:40;101441.59;;;9.02;73.40
77583;BME280;66726;52.388;9.986;2023-05-17T01:36:14;101440.13;;;8.89;73.86
77583;BME280;66726;52.388;9.986;2023-05-17T01:38:47;101448.56;;;8.94;74.14
77583;BME280;66726;52.388;9.986;2023-05-17T01:41:28;101451.91;;;8.86;74.76
77583;BME280;66726;52.388;9.986;2023-05-17T01:44:11;101448.81;;;8.91;74.23
77583;BME280;66726;52.388;9.986;2023-05-17T01:46:50;101454.69;;;8.85;74.67
77583;BME280;66726;52.388;9.986;2023-05-17T01:49:33;101458.34;;;8.84;75.17
77583;BME280;66726;52.388;9.986;2023-05-17T01:52:15;101458.34;;;8.84;75.01
77583;BME280;66726;52.388;9.986;2023-05-17T01:54:58;101460.94;;;8.95;74.58
77583;BME280;66726;52.388;9.986;2023-05-17T01:57:37;101469.69;;;8.97;73.81
77583;BME280;66726;52.388;9.986;2023-05-17T02:00:14;101467.78;;;8.88;74.65
77583;BME280;66726;52.388;9.986;2023-05-17T02:02:47;101461.91;;;8.94;74.03
77583;BME280;66726;52.388;9.986;2023-05-17T02:05:21;101473.59;;;8.93;74.55
77583;BME280;66726;52.388;9.986;2023-05-17T02:07:54;101473.19;;;8.97;73.60
77583;BME280;66726;52.388;9.986;2023-05-17T02:10:27;101474.28;;;8.95;74.17
77583;BME280;66726;52.388;9.986;2023-05-17T02:13:01;101482.03;;;8.98;73.51
77583;BME280;66726;52.388;9.986;2023-05-17T02:15:34;101476.78;;;8.87;74.86
77583;BME280;66726;52.388;9.986;2023-05-17T02:18:07;101476.00;;;8.75;76.56
77583;BME280;66726;52.388;9.986;2023-05-17T02:20:43;101478.03;;;8.83;75.50
77583;BME280;66726;52.388;9.986;2023-05-17T02:23:16;101474.91;;;8.78;76.17
77583;BME280;66726;52.388;9.986;2023-05-17T02:25:50;101475.38;;;8.83;75.13
77583;BME280;66726;52.388;9.986;2023-05-17T02:28:23;101477.75;;;8.86;75.85
77583;BME280;66726;52.388;9.986;2023-05-17T02:30:56;101479.19;;;8.90;75.54
77583;BME280;66726;52.388;9.986;2023-05-17T02:33:30;101481.88;;;8.90;75.80
77583;BME280;66726;52.388;9.986;2023-05-17T02:36:04;101471.19;;;8.90;76.43
77583;BME280;66726;52.388;9.986;2023-05-17T02:38:40;101477.19;;;8.82;76.88
77583;BME280;66726;52.388;9.986;2023-05-17T02:41:14;101486.75;;;8.85;76.44
77583;BME280;66726;52.388;9.986;2023-05-17T02:43:47;101490.53;;;8.82;77.00
77583;BME280;66726;52.388;9.986;2023-05-17T02:46:21;101484.88;;;8.76;77.91
77583;BME280;66726;52.388;9.986;2023-05-17T02:48:55;101488.56;;;8.63;79.05
77583;BME280;66726;52.388;9.986;2023-05-17T02:51:28;101483.81;;;8.67;78.29
77583;BME280;66726;52.388;9.986;2023-05-17T02:54:02;101497.69;;;8.61;78.89
77583;BME280;66726;52.388;9.986;2023-05-17T02:56:35;101497.91;;;8.69;78.58
77583;BME280;66726;52.388;9.986;2023-05-17T02:59:09;101496.78;;;8.72;77.99
77583;BME280;66726;52.388;9.986;2023-05-17T03:01:42;101502.50;;;8.67;78.36
77583;BME280;66726;52.388;9.986;2023-05-17T03:04:21;101500.41;;;8.71;77.52
77583;BME280;66726;52.388;9.986;2023-05-17T03:06:54;101505.06;;;8.69;77.97
77583;BME280;66726;52.388;9.986;2023-05-17T03:09:28;101507.34;;;8.73;77.84
77583;BME280;66726;52.388;9.986;2023-05-17T03:12:02;101509.44;;;8.70;78.17
77583;BME280;66726;52.388;9.986;2023-05-17T03:14:35;101514.03;;;8.68;78.19
77583;BME280;66726;52.388;9.986;2023-05-17T03:17:08;101511.41;;;8.56;79.18
77583;BME280;66726;52.388;9.986;2023-05-17T03:19:41;101522.66;;;8.60;78.94
77583;BME280;66726;52.388;9.986;2023-05-17T03:22:15;101517.59;;;8.57;79.28
77583;BME280;66726;52.388;9.986;2023-05-17T03:24:48;101517.75;;;8.55;79.49
77583;BME280;66726;52.388;9.986;2023-05-17T03:27:21;101526.44;;;8.57;78.63
77583;BME280;66726;52.388;9.986;2023-05-17T03:29:55;101526.06;;;8.62;78.22
77583;BME280;66726;52.388;9.986;2023-05-17T03:32:28;101530.31;;;8.64;78.22
77583;BME280;66726;52.388;9.986;2023-05-17T03:35:02;101536.13;;;8.70;77.66
77583;BME280;66726;52.388;9.986;2023-05-17T03:37:36;101544.28;;;8.57;78.69
77583;BME280;66726;52.388;9.986;2023-05-17T03:40:11;101546.34;;;8.53;78.86
77583;BME280;66726;52.388;9.986;2023-05-17T03:42:45;101544.69;;;8.52;78.94
77583;BME280;66726;52.388;9.986;2023-05-17T03:45:18;101549.75;;;8.55;78.39
77583;BME280;66726;52.388;9.986;2023-05-17T03:47:51;101551.91;;;8.61;77.96
77583;BME280;66726;52.388;9.986;2023-05-17T03:50:25;101554.59;;;8.61;78.28
77583;BME280;66726;52.388;9.986;2023-05-17T03:52:59;101548.59;;;8.48;79.00
77583;BME280;66726;52.388;9.986;2023-05-17T03:55:32;101553.41;;;8.54;77.83
77583;BME280;66726;52.388;9.986;2023-05-17T03:58:05;101561.78;;;8.50;78.76
77583;BME280;66726;52.388;9.986;2023-05-17T04:00:38;101567.44;;;8.56;78.40
77583;BME280;66726;52.388;9.986;2023-05-17T04:03:12;101570.84;;;8.58;77.88
77583;BME280;66726;52.388;9.986;2023-05-17T04:05:46;101571.13;;;8.55;78.24
77583;BME280;66726;52.388;9.986;2023-05-17T04:08:19;101579.41;;;8.41;79.19
77583;BME280;66726;52.388;9.986;2023-05-17T04:10:52;101579.88;;;8.46;78.45
77583;BME280;66726;52.388;9.986;2023-05-17T04:13:26;101586.22;;;8.34;78.35
77583;BME280;66726;52.388;9.986;2023-05-17T04:15:59;101585.72;;;8.40;78.45
77583;BME280;66726;52.388;9.986;2023-05-17T04:18:35;101589.84;;;8.44;78.15
77583;BME280;66726;52.388;9.986;2023-05-17T04:21:09;101594.19;;;8.45;77.48
77583;BME280;66726;52.388;9.986;2023-05-17T04:23:43;101586.06;;;8.47;77.58
77583;BME280;66726;52.388;9.986;2023-05-17T04:26:17;101592.59;;;8.54;77.10
77583;BME280;66726;52.388;9.986;2023-05-17T04:28:51;101590.78;;;8.54;76.23
77583;BME280;66726;52.388;9.986;2023-05-17T04:31:25;101605.06;;;8.53;76.52
77583;BME280;66726;52.388;9.986;2023-05-17T04:33:58;101598.28;;;8.49;76.72
77583;BME280;66726;52.388;9.986;2023-05-17T04:36:32;101609.44;;;8.54;75.62
77583;BME280;66726;52.388;9.986;2023-05-17T04:39:05;101616.50;;;8.44;77.03
77583;BME280;66726;52.388;9.986;2023-05-17T04:41:39;101626.25;;;8.34;77.25
77583;BME280;66726;52.388;9.986;2023-05-17T04:44:12;101627.44;;;8.41;76.36
77583;BME280;66726;52.388;9.986;2023-05-17T04:46:46;101630.09;;;8.52;75.98
77583;BME280;66726;52.388;9.986;2023-05-17T04:49:19;101642.09;;;8.47;76.48
77583;BME280;66726;52.388;9.986;2023-05-17T04:51:53;101648.88;;;8.51;76.47
77583;BME280;66726;52.388;9.986;2023-05-17T04:54:27;101642.09;;;8.47;76.14
77583;BME280;66726;52.388;9.986;2023-05-17T04:57:00;101646.09;;;8.52;76.03
77583;BME280;66726;52.388;9.986;2023-05-17T04:59:34;101650.44;;;8.53;75.89
77583;BME280;66726;52.388;9.986;2023-05-17T05:02:08;101659.22;;;8.44;76.38
77583;BME280;66726;52.388;9.986;2023-05-17T05:04:41;101658.72;;;8.50;76.07
77583;BME280;66726;52.388;9.986;2023-05-17T05:07:15;101660.41;;;8.51;76.24
77583;BME280;66726;52.388;9.986;2023-05-17T05:09:49;101663.78;;;8.53;75.93
77583;BME280;66726;52.388;9.986;2023-05-17T05:12:22;101662.84;;;8.43;76.21
77583;BME280;66726;52.388;9.986;2023-05-17T05:14:56;101671.59;;;8.45;76.32
77583;BME280;66726;52.388;9.986;2023-05-17T05:17:33;101672.91;;;8.51;75.77
77583;BME280;66726;52.388;9.986;2023-05-17T05:20:09;101680.19;;;8.49;75.10
77583;BME280;66726;52.388;9.986;2023-05-17T05:22:43;101683.94;;;8.57;74.16
77583;BME280;66726;52.388;9.986;2023-05-17T05:25:16;101680.16;;;8.60;75.08
77583;BME280;66726;52.388;9.986;2023-05-17T05:27:49;101686.34;;;8.60;74.60
77583;BME280;66726;52.388;9.986;2023-05-17T05:30:23;101684.41;;;8.62;74.83
77583;BME280;66726;52.388;9.986;2023-05-17T05:32:56;101688.91;;;8.62;74.89
77583;BME280;66726;52.388;9.986;2023-05-17T05:35:30;101694.75;;;8.56;75.10
77583;BME280;66726;52.388;9.986;2023-05-17T05:38:03;101697.88;;;8.61;74.51
77583;BME280;66726;52.388;9.986;2023-05-17T05:40:36;101700.44;;;8.62;74.98
77583;BME280;66726;52.388;9.986;2023-05-17T05:43:10;101700.69;;;8.59;74.97
77583;BME280;66726;52.388;9.986;2023-05-17T05:45:43;101698.75;;;8.50;74.07
77583;BME280;66726;52.388;9.986;2023-05-17T05:48:18;101706.25;;;8.56;73.34
77583;BME280;66726;52.388;9.986;2023-05-17T05:50:52;101716.81;;;8.58;73.66
77583;BME280;66726;52.388;9.986;2023-05-17T05:53:25;101708.19;;;8.65;73.44
77583;BME280;66726;52.388;9.986;2023-05-17T05:55:58;101708.03;;;8.67;72.61
77583;BME280;66726;52.388;9.986;2023-05-17T05:58:33;101718.38;;;8.72;72.54
77583;BME280;66726;52.388;9.986;2023-05-17T06:01:07;101722.22;;;8.79;72.39
77583;BME280;66726;52.388;9.986;2023-05-17T06:03:40;101714.47;;;8.76;70.73
77583;BME280;66726;52.388;9.986;2023-05-17T06:06:13;101716.28;;;8.75;70.34
77583;BME280;66726;52.388;9.986;2023-05-17T06:08:48;101714.22;;;8.79;70.46
77583;BME280;66726;52.388;9.986;2023-05-17T06:11:22;101730.69;;;8.84;69.98
77583;BME280;66726;52.388;9.986;2023-05-17T06:13:55;101726.81;;;8.88;70.17
77583;BME280;66726;52.388;9.986;2023-05-17T06:16:29;101726.31;;;8.94;69.94
77583;BME280;66726;52.388;9.986;2023-05-17T06:19:02;101737.47;;;8.99;68.72
77583;BME280;66726;52.388;9.986;2023-05-17T06:21:37;101735.88;;;9.07;68.21
77583;BME280;66726;52.388;9.986;2023-05-17T06:24:11;101740.56;;;9.15;67.71
77583;BME280;66726;52.388;9.986;2023-05-17T06:26:44;101744.44;;;9.22;64.78
77583;BME280;66726;52.388;9.986;2023-05-17T06:29:18;101749.06;;;9.20;65.24
77583;BME280;66726;52.388;9.986;2023-05-17T06:31:51;101733.50;;;9.25;65.93
77583;BME280;66726;52.388;9.986;2023-05-17T06:34:27;101744.06;;;9.27;66.34
77583;BME280;66726;52.388;9.986;2023-05-17T06:37:00;101743.91;;;9.28;65.53
77583;BME280;66726;52.388;9.986;2023-05-17T06:39:33;101743.53;;;9.33;64.78
77583;BME280;66726;52.388;9.986;2023-05-17T06:42:07;101743.28;;;9.36;63.39
77583;BME280;66726;52.388;9.986;2023-05-17T06:44:41;101743.88;;;9.39;63.60
77583;BME280;66726;52.388;9.986;2023-05-17T06:47:15;101747.28;;;9.41;61.99
77583;BME280;66726;52.388;9.986;2023-05-17T06:49:49;101754.03;;;9.45;61.12
77583;BME280;66726;52.388;9.986;2023-05-17T06:52:22;101756.50;;;9.48;60.94
77583;BME280;66726;52.388;9.986;2023-05-17T06:54:56;101753.28;;;9.54;58.60
77583;BME280;66726;52.388;9.986;2023-05-17T06:57:29;101763.72;;;9.57;57.68
77583;BME280;66726;52.388;9.986;2023-05-17T07:00:03;101776.13;;;9.58;56.40
77583;BME280;66726;52.388;9.986;2023-05-17T07:02:37;101767.09;;;9.59;56.74
77583;BME280;66726;52.388;9.986;2023-05-17T07:05:11;101777.09;;;9.57;57.29
77583;BME280;66726;52.388;9.986;2023-05-17T07:07:45;101775.59;;;9.64;57.58
77583;BME280;66726;52.388;9.986;2023-05-17T07:10:18;101779.31;;;9.73;58.17
77583;BME280;66726;52.388;9.986;2023-05-17T07:12:51;101779.63;;;9.80;56.45
77583;BME280;66726;52.388;9.986;2023-05-17T07:15:25;101783.06;;;9.82;55.81
77583;BME280;66726;52.388;9.986;2023-05-17T07:17:58;101794.88;;;9.79;56.36
77583;BME280;66726;52.388;9.986;2023-05-17T07:20:32;101794.00;;;9.79;56.54
77583;BME280;66726;52.388;9.986;2023-05-17T07:23:05;101795.44;;;9.83;56.18
77583;BME280;66726;52.388;9.986;2023-05-17T07:25:39;101805.31;;;9.82;57.12
77583;BME280;66726;52.388;9.986;2023-05-17T07:28:14;101814.28;;;9.81;57.12
77583;BME280;66726;52.388;9.986;2023-05-17T07:30:47;101817.19;;;9.89;57.13
77583;BME280;66726;52.388;9.986;2023-05-17T07:33:21;101819.97;;;9.88;57.77
77583;BME280;66726;52.388;9.986;2023-05-17T07:35:55;101816.31;;;9.89;58.09
77583;BME280;66726;52.388;9.986;2023-05-17T07:38:28;101827.28;;;9.86;58.14
77583;BME280;66726;52.388;9.986;2023-05-17T07:41:01;101830.41;;;9.91;57.97
77583;BME280;66726;52.388;9.986;2023-05-17T07:43:34;101825.91;;;9.91;57.25
77583;BME280;66726;52.388;9.986;2023-05-17T07:46:08;101832.13;;;9.92;57.10
77583;BME280;66726;52.388;9.986;2023-05-17T07:48:41;101840.09;;;10.03;58.32
77583;BME280;66726;52.388;9.986;2023-05-17T07:51:15;101850.34;;;10.18;59.60
77583;BME280;66726;52.388;9.986;2023-05-17T07:53:48;101838.72;;;10.29;54.67
77583;BME280;66726;52.388;9.986;2023-05-17T07:56:21;101857.66;;;10.37;54.88
77583;BME280;66726;52.388;9.986;2023-05-17T07:58:55;101853.56;;;10.33;53.77
77583;BME280;66726;52.388;9.986;2023-05-17T08:01:29;101851.06;;;10.41;54.66
77583;BME280;66726;52.388;9.986;2023-05-17T08:04:02;101845.34;;;10.55;55.56
77583;BME280;66726;52.388;9.986;2023-05-17T08:06:36;101858.22;;;10.61;54.61
77583;BME280;66726;52.388;9.986;2023-05-17T08:09:09;101855.66;;;10.60;54.66
77583;BME280;66726;52.388;9.986;2023-05-17T08:11:42;101868.34;;;10.58;55.00
77583;BME280;66726;52.388;9.986;2023-05-17T08:14:21;101876.50;;;10.56;54.51
77583;BME280;66726;52.388;9.986;2023-05-17T08:16:54;101865.09;;;10.54;53.98
77583;BME280;66726;52.388;9.986;2023-05-17T08:19:28;101869.75;;;10.62;54.47
77583;BME280;66726;52.388;9.986;2023-05-17T08:22:01;101869.44;;;10.55;54.24
77583;BME280;66726;52.388;9.986;2023-05-17T08:24:34;101869.19;;;10.58;55.46
77583;BME280;66726;52.388;9.986;2023-05-17T08:27:09;101875.97;;;10.62;55.32
77583;BME280;66726;52.388;9.986;2023-05-17T08:29:43;101866.00;;;10.64;56.01
77583;BME280;66726;52.388;9.986;2023-05-17T08:32:16;101874.31;;;10.61;55.80
77583;BME280;66726;52.388;9.986;2023-05-17T08:34:49;101875.13;;;10.62;55.38
77583;BME280;66726;52.388;9.986;2023-05-17T08:37:23;101874.72;;;10.66;56.73
77583;BME280;66726;52.388;9.986;2023-05-17T08:39:56;101873.03;;;10.65;56.00
77583;BME280;66726;52.388;9.986;2023-05-17T08:42:31;101888.13;;;10.66;56.46
77583;BME280;66726;52.388;9.986;2023-05-17T08:45:09;101881.22;;;10.64;55.82
77583;BME280;66726;52.388;9.986;2023-05-17T08:47:46;101884.25;;;10.80;57.39
77583;BME280;66726;52.388;9.986;2023-05-17T08:50:20;101877.63;;;10.84;56.54
77583;BME280;66726;52.388;9.986;2023-05-17T08:52:54;101878.22;;;10.88;56.96
77583;BME280;66726;52.388;9.986;2023-05-17T08:55:31;101887.84;;;10.69;54.05
77583;BME280;66726;52.388;9.986;2023-05-17T08:58:07;101882.50;;;10.69;53.14
77583;BME280;66726;52.388;9.986;2023-05-17T09:00:41;101875.66;;;10.86;54.12
77583;BME280;66726;52.388;9.986;2023-05-17T09:03:20;101880.53;;;11.02;53.63
77583;BME280;66726;52.388;9.986;2023-05-17T09:05:55;101876.75;;;11.14;53.13
77583;BME280;66726;52.388;9.986;2023-05-17T09:08:32;101888.63;;;11.21;52.94
77583;BME280;66726;52.388;9.986;2023-05-17T09:11:05;101883.84;;;11.25;52.17
77583;BME280;66726;52.388;9.986;2023-05-17T09:13:40;101880.16;;;11.16;51.27
77583;BME280;66726;52.388;9.986;2023-05-17T09:16:17;101891.31;;;11.21;52.03
77583;BME280;66726;52.388;9.986;2023-05-17T09:18:58;101888.63;;;11.21;52.13
77583;BME280;66726;52.388;9.986;2023-05-17T09:21:35;101876.09;;;11.31;51.55
77583;BME280;66726;52.388;9.986;2023-05-17T09:24:09;101881.91;;;11.36;52.36
77583;BME280;66726;52.388;9.986;2023-05-17T09:26:44;101877.69;;;11.43;49.72
77583;BME280;66726;52.388;9.986;2023-05-17T09:29:19;101877.44;;;11.56;49.89
77583;BME280;66726;52.388;9.986;2023-05-17T09:31:53;101867.25;;;11.50;49.08
77583;BME280;66726;52.388;9.986;2023-05-17T09:34:27;101868.34;;;11.47;49.28
77583;BME280;66726;52.388;9.986;2023-05-17T09:37:00;101867.25;;;11.50;48.18
77583;BME280;66726;52.388;9.986;2023-05-17T09:39:35;101889.56;;;11.50;51.08
77583;BME280;66726;52.388;9.986;2023-05-17T09:42:09;101886.72;;;11.52;49.73
77583;BME280;66726;52.388;9.986;2023-05-17T09:44:56;101893.41;;;11.57;49.94
77583;BME280;66726;52.388;9.986;2023-05-17T09:47:32;101889.81;;;11.47;47.56
77583;BME280;66726;52.388;9.986;2023-05-17T09:50:08;101887.59;;;11.62;45.75
77583;BME280;66726;52.388;9.986;2023-05-17T09:52:49;101879.16;;;11.86;46.23
77583;BME280;66726;52.388;9.986;2023-05-17T09:55:27;101874.34;;;11.99;44.42
77583;BME280;66726;52.388;9.986;2023-05-17T09:58:05;101871.81;;;12.07;45.00
77583;BME280;66726;52.388;9.986;2023-05-17T10:00:39;101872.38;;;12.10;45.09
77583;BME280;66726;52.388;9.986;2023-05-17T10:03:14;101868.44;;;12.05;44.88
77583;BME280;66726;52.388;9.986;2023-05-17T10:05:52;101868.44;;;12.05;45.72
77583;BME280;66726;52.388;9.986;2023-05-17T10:08:27;101872.25;;;12.02;46.07
77583;BME280;66726;52.388;9.986;2023-05-17T10:11:04;101868.88;;;11.91;45.04
77583;BME280;66726;52.388;9.986;2023-05-17T10:13:43;101878.91;;;11.98;46.32
77583;BME280;66726;52.388;9.986;2023-05-17T10:16:19;101879.47;;;12.02;45.26
77583;BME280;66726;52.388;9.986;2023-05-17T10:18:55;101879.72;;;12.18;45.13
77583;BME280;66726;52.388;9.986;2023-05-17T10:21:30;101886.78;;;12.38;46.25
77583;BME280;66726;52.388;9.986;2023-05-17T10:24:06;101878.69;;;12.48;43.93
77583;BME280;66726;52.388;9.986;2023-05-17T10:26:40;101871.16;;;12.61;43.73
77583;BME280;66726;52.388;9.986;2023-05-17T10:29:14;101869.44;;;12.69;44.93
77583;BME280;66726;52.388;9.986;2023-05-17T10:31:50;101884.16;;;12.65;43.76
77583;BME280;66726;52.388;9.986;2023-05-17T10:34:25;101873.94;;;12.79;44.64
77583;BME280;66726;52.388;9.986;2023-05-17T10:37:02;101875.44;;;12.91;44.24
77583;BME280;66726;52.388;9.986;2023-05-17T10:39:36;101881.38;;;12.94;43.03
77583;BME280;66726;52.388;9.986;2023-05-17T10:42:12;101882.19;;;12.95;43.34
77583;BME280;66726;52.388;9.986;2023-05-17T10:44:48;101881.09;;;12.88;43.57
77583;BME280;66726;52.388;9.986;2023-05-17T10:47:23;101880.31;;;13.05;43.71
77583;BME280;66726;52.388;9.986;2023-05-17T10:50:10;101879.16;;;13.17;42.14
77583;BME280;66726;52.388;9.986;2023-05-17T10:52:51;101874.38;;;13.38;42.09
77583;BME280;66726;52.388;9.986;2023-05-17T10:55:37;101882.69;;;13.45;41.75
77583;BME280;66726;52.388;9.986;2023-05-17T10:58:19;101874.44;;;13.46;44.00
77583;BME280;66726;52.388;9.986;2023-05-17T11:00:55;101877.50;;;13.34;45.48
77583;BME280;66726;52.388;9.986;2023-05-17T11:03:31;101875.91;;;13.41;45.08
77583;BME280;66726;52.388;9.986;2023-05-17T11:06:23;101885.28;;;13.37;43.82
77583;BME280;66726;52.388;9.986;2023-05-17T11:09:17;101890.78;;;13.62;44.38
77583;BME280;66726;52.388;9.986;2023-05-17T11:12:13;101879.72;;;13.65;42.58
77583;BME280;66726;52.388;9.986;2023-05-17T11:14:55;101881.09;;;13.87;44.08
77583;BME280;66726;52.388;9.986;2023-05-17T11:17:36;101887.72;;;13.93;42.96
77583;BME280;66726;52.388;9.986;2023-05-17T11:20:36;101879.56;;;14.02;42.05
77583;BME280;66726;52.388;9.986;2023-05-17T11:23:19;101884.41;;;13.99;41.81
77583;BME280;66726;52.388;9.986;2023-05-17T11:25:54;101876.34;;;13.99;41.71
77583;BME280;66726;52.388;9.986;2023-05-17T11:28:37;101871.72;;;13.91;42.60
77583;BME280;66726;52.388;9.986;2023-05-17T11:31:11;101877.41;;;14.06;42.81
77583;BME280;66726;52.388;9.986;2023-05-17T11:33:46;101884.19;;;14.10;41.91
77583;BME280;66726;52.388;9.986;2023-05-17T11:36:24;101877.50;;;14.14;42.04
77583;BME280;66726;52.388;9.986;2023-05-17T11:39:14;101886.16;;;14.08;42.20
77583;BME280;66726;52.388;9.986;2023-05-17T11:41:54;101885.16;;;14.09;41.91
77583;BME280;66726;52.388;9.986;2023-05-17T11:44:32;101886.56;;;13.95;41.41
77583;BME280;66726;52.388;9.986;2023-05-17T11:47:09;101876.19;;;13.83;40.76
77583;BME280;66726;52.388;9.986;2023-05-17T11:49:43;101883.72;;;13.97;40.46
77583;BME280;66726;52.388;9.986;2023-05-17T11:52:19;101897.00;;;14.16;40.73
77583;BME280;66726;52.388;9.986;2023-05-17T11:54:55;101889.22;;;14.48;38.60
77583;BME280;66726;52.388;9.986;2023-05-17T11:57:34;101880.88;;;14.59;38.23
77583;BME280;66726;52.388;9.986;2023-05-17T12:00:13;101888.63;;;14.37;38.76
77583;BME280;66726;52.388;9.986;2023-05-17T12:02:48;101890.88;;;14.41;39.20
77583;BME280;66726;52.388;9.986;2023-05-17T12:05:24;101900.09;;;14.39;41.72
77583;BME280;66726;52.388;9.986;2023-05-17T12:07:59;101914.38;;;14.21;40.53
77583;BME280;66726;52.388;9.986;2023-05-17T12:10:32;101899.25;;;14.38;41.08
77583;BME280;66726;52.388;9.986;2023-05-17T12:13:07;101910.25;;;14.45;41.38
77583;BME280;66726;52.388;9.986;2023-05-17T12:15:47;101907.34;;;14.38;40.21
77583;BME280;66726;52.388;9.986;2023-05-17T12:18:23;101898.31;;;14.47;41.59
77583;BME280;66726;52.388;9.986;2023-05-17T12:21:11;101905.50;;;14.64;40.14
77583;BME280;66726;52.388;9.986;2023-05-17T12:23:49;101906.38;;;14.99;40.49
77583;BME280;66726;52.388;9.986;2023-05-17T12:26:25;101919.66;;;14.92;39.40
77583;BME280;66726;52.388;9.986;2023-05-17T12:29:00;101926.19;;;15.15;39.79
77583;BME280;66726;52.388;9.986;2023-05-17T12:31:37;101920.28;;;15.12;38.63
77583;BME280;66726;52.388;9.986;2023-05-17T12:34:12;101924.16;;;15.17;37.45
77583;BME280;66726;52.388;9.986;2023-05-17T12:36:47;101915.34;;;15.07;36.96
77583;BME280;66726;52.388;9.986;2023-05-17T12:39:23;101918.66;;;15.27;37.43
77583;BME280;66726;52.388;9.986;2023-05-17T12:41:57;101925.41;;;15.31;38.47
77583;BME280;66726;52.388;9.986;2023-05-17T12:44:31;101917.69;;;15.36;39.07
77583;BME280;66726;52.388;9.986;2023-05-17T12:47:08;101917.47;;;15.63;39.27
77583;BME280;66726;52.388;9.986;2023-05-17T12:49:56;101920.34;;;15.70;38.24
77583;BME280;66726;52.388;9.986;2023-05-17T12:52:37;101924.03;;;15.61;37.49
77583;BME280;66726;52.388;9.986;2023-05-17T12:55:15;101921.78;;;15.48;38.49
77583;BME280;66726;52.388;9.986;2023-05-17T12:57:55;101919.84;;;15.66;37.35
77583;BME280;66726;52.388;9.986;2023-05-17T13:00:29;101922.00;;;15.63;38.54
77583;BME280;66726;52.388;9.986;2023-05-17T13:03:02;101918.13;;;15.65;37.63
77583;BME280;66726;52.388;9.986;2023-05-17T13:05:41;101909.72;;;15.77;37.70
77583;BME280;66726;52.388;9.986;2023-05-17T13:08:24;101927.66;;;15.94;37.31
77583;BME280;66726;52.388;9.986;2023-05-17T13:11:12;101916.50;;;15.97;37.10
77583;BME280;66726;52.388;9.986;2023-05-17T13:13:46;101922.91;;;15.88;37.36
77583;BME280;66726;52.388;9.986;2023-05-17T13:16:28;101931.28;;;15.60;37.55
77583;BME280;66726;52.388;9.986;2023-05-17T13:19:10;101931.97;;;15.54;38.12
77583;BME280;66726;52.388;9.986;2023-05-17T13:21:43;101919.84;;;15.83;37.28
77583;BME280;66726;52.388;9.986;2023-05-17T13:24:16;101922.59;;;16.07;36.62
77583;BME280;66726;52.388;9.986;2023-05-17T13:26:50;101917.22;;;16.15;36.79
77583;BME280;66726;52.388;9.986;2023-05-17T13:29:23;101916.00;;;15.93;36.16
77583;BME280;66726;52.388;9.986;2023-05-17T13:32:11;101921.41;;;15.85;38.37
77583;BME280;66726;52.388;9.986;2023-05-17T13:34:45;101918.97;;;15.66;37.40
77583;BME280;66726;52.388;9.986;2023-05-17T13:37:19;101917.00;;;15.84;36.97
77583;BME280;66726;52.388;9.986;2023-05-17T13:39:52;101918.91;;;16.08;38.30